createdAt,value
2023-01-30T00:02:01.680Z,97273.59
2023-01-30T00:04:48.657Z,97255.22
2023-01-30T00:07:35.716Z,97247.84
2023-01-30T00:10:25.153Z,97249.00
2023-01-30T00:13:12.989Z,97251.50
2023-01-30T00:16:00.044Z,97245.31
2023-01-30T00:18:46.992Z,97242.56
2023-01-30T00:21:34.867Z,97232.06
2023-01-30T00:24:21.870Z,97225.00
2023-01-30T00:27:08.965Z,97212.00
2023-01-30T00:30:02.914Z,97205.69
2023-01-30T00:32:50.992Z,97193.84
2023-01-30T00:35:38.018Z,97190.84
2023-01-30T00:38:24.904Z,97187.28
2023-01-30T00:41:12.245Z,97189.91
2023-01-30T00:43:57.754Z,97177.16
2023-01-30T00:46:50.008Z,97176.78
2023-01-30T00:49:37.332Z,97156.84
2023-01-30T00:52:24.962Z,97161.84
2023-01-30T00:55:11.873Z,97140.66
2023-01-30T00:57:58.981Z,97159.09
2023-01-30T01:00:46.149Z,97149.69
2023-01-30T01:03:33.594Z,97146.81
2023-01-30T01:06:20.631Z,97146.94
2023-01-30T01:09:07.667Z,97149.44
2023-01-30T01:11:55.774Z,97128.22
2023-01-30T01:14:42.788Z,97121.91
2023-01-30T01:17:30.236Z,97093.19
2023-01-30T01:20:17.944Z,97111.00
2023-01-30T01:23:05.640Z,97107.41
2023-01-30T01:25:52.702Z,97104.78
2023-01-30T01:28:39.682Z,97111.69
2023-01-30T01:31:35.440Z,97109.19
2023-01-30T01:34:22.504Z,97109.06
2023-01-30T01:37:09.855Z,97117.91
2023-01-30T01:39:55.681Z,97109.19
2023-01-30T01:42:45.771Z,97109.44
2023-01-30T01:45:41.074Z,97103.13
2023-01-30T01:48:36.024Z,97084.03
2023-01-30T01:51:37.341Z,97078.66
2023-01-30T01:54:29.993Z,97063.53
2023-01-30T01:57:17.017Z,97071.88
2023-01-30T02:00:13.008Z,97077.94
2023-01-30T02:03:03.793Z,97026.78
2023-01-30T02:05:55.063Z,97072.69
2023-01-30T02:08:46.757Z,97056.63
2023-01-30T02:12:06.759Z,97043.25
2023-01-30T02:14:55.002Z,97036.16
2023-01-30T02:17:43.698Z,97034.53
2023-01-30T02:20:44.694Z,97019.59
2023-01-30T02:23:53.104Z,97003.97
2023-01-30T02:27:04.700Z,97004.78
2023-01-30T02:30:04.555Z,96990.84
2023-01-30T02:33:05.606Z,96980.59
2023-01-30T02:36:45.964Z,96976.69
2023-01-30T02:39:45.341Z,96990.97
2023-01-30T02:42:38.103Z,96982.25
2023-01-30T02:45:43.878Z,96965.66
2023-01-30T02:48:43.182Z,96960.66
2023-01-30T02:51:37.698Z,96964.84
2023-01-30T02:54:31.160Z,96960.41
2023-01-30T02:57:19.720Z,96963.03
2023-01-30T03:00:10.771Z,96971.88
2023-01-30T03:03:15.905Z,96968.41
2023-01-30T03:06:22.795Z,96965.91
2023-01-30T03:09:10.838Z,96977.41
2023-01-30T03:12:09.389Z,96961.56
2023-01-30T03:14:59.801Z,96970.50
2023-01-30T03:17:48.558Z,96977.41
2023-01-30T03:20:40.220Z,96980.16
2023-01-30T03:23:28.333Z,96979.31
2023-01-30T03:26:15.481Z,96974.91
2023-01-30T03:29:06.523Z,96957.63
2023-01-30T03:31:53.763Z,96959.28
2023-01-30T03:34:40.826Z,96952.63
2023-01-30T03:37:28.103Z,96944.63
2023-01-30T03:40:15.145Z,96896.06
2023-01-30T03:43:02.428Z,96955.00
2023-01-30T03:45:50.392Z,96957.63
2023-01-30T03:48:37.509Z,96953.19
2023-01-30T03:51:25.599Z,96954.16
2023-01-30T03:54:12.981Z,96946.41
2023-01-30T03:56:59.940Z,96938.78
2023-01-30T03:59:46.962Z,96931.63
2023-01-30T04:02:35.767Z,96940.44
2023-01-30T04:05:22.795Z,96937.16
2023-01-30T04:08:17.257Z,96948.31
2023-01-30T04:11:04.179Z,96950.53
2023-01-30T04:13:51.354Z,96946.22
2023-01-30T04:16:41.552Z,96947.63
2023-01-30T04:20:00.134Z,96935.47
2023-01-30T04:22:47.462Z,96937.41
2023-01-30T04:25:34.510Z,96920.69
2023-01-30T04:28:27.429Z,96919.84
2023-01-30T04:31:14.467Z,96916.41
2023-01-30T04:34:24.991Z,96905.06
2023-01-30T04:37:12.774Z,96898.16
2023-01-30T04:40:00.076Z,96890.28
2023-01-30T04:42:47.662Z,96879.34
2023-01-30T04:46:07.840Z,96893.72
2023-01-30T04:48:54.850Z,96899.09
2023-01-30T04:51:41.755Z,96871.53
2023-01-30T04:54:29.513Z,96901.59
2023-01-30T04:56:57.715Z,96907.81
2023-01-30T04:59:24.839Z,96905.06
2023-01-30T05:01:52.989Z,96879.16
2023-01-30T05:04:20.376Z,96898.16
2023-01-30T05:06:47.395Z,96904.22
2023-01-30T05:09:14.511Z,96906.03
2023-01-30T05:11:41.482Z,96905.19
2023-01-30T05:14:08.423Z,96902.56
2023-01-30T05:16:35.642Z,96905.19
2023-01-30T05:19:02.545Z,96909.47
2023-01-30T05:21:29.634Z,96897.13
2023-01-30T05:23:57.715Z,96915.56
2023-01-30T05:26:24.826Z,96912.94
2023-01-30T05:28:53.949Z,96906.84
2023-01-30T05:31:21.103Z,96911.28
2023-01-30T05:33:49.905Z,96886.03
2023-01-30T05:36:18.537Z,96885.75
2023-01-30T05:38:46.186Z,96908.88
2023-01-30T05:41:15.230Z,96910.31
2023-01-30T05:43:42.602Z,96912.94
2023-01-30T05:46:12.027Z,96913.78
2023-01-30T05:48:39.456Z,96899.50
2023-01-30T05:51:07.067Z,96898.03
2023-01-30T05:53:35.251Z,96899.81
2023-01-30T05:56:05.716Z,96905.06
2023-01-30T05:58:33.491Z,96904.09
2023-01-30T06:01:06.010Z,96911.16
2023-01-30T06:03:33.004Z,96911.16
2023-01-30T06:06:02.004Z,96911.16
2023-01-30T06:08:29.621Z,96913.66
2023-01-30T06:11:03.249Z,96919.03
2023-01-30T06:13:30.328Z,96919.72
2023-01-30T06:15:57.264Z,96924.97
2023-01-30T06:18:24.256Z,96918.91
2023-01-30T06:20:52.963Z,96919.72
2023-01-30T06:23:21.475Z,96919.72
2023-01-30T06:25:49.656Z,96909.84
2023-01-30T06:28:17.778Z,96906.56
2023-01-30T06:31:04.957Z,96919.72
2023-01-30T06:33:52.421Z,96925.78
2023-01-30T06:36:39.348Z,96910.88
2023-01-30T06:39:26.250Z,96854.59
2023-01-30T06:42:13.111Z,96914.72
2023-01-30T06:45:00.156Z,96921.53
2023-01-30T06:47:47.120Z,96921.53
2023-01-30T06:50:35.485Z,96932.03
2023-01-30T06:53:26.692Z,96935.47
2023-01-30T06:56:13.674Z,96944.31
2023-01-30T06:59:00.662Z,96948.72
2023-01-30T07:01:47.680Z,96964.47
2023-01-30T07:04:34.633Z,96954.81
2023-01-30T07:07:22.012Z,96949.56
2023-01-30T07:10:09.342Z,96954.94
2023-01-30T07:12:56.452Z,96944.81
2023-01-30T07:15:43.519Z,96960.19
2023-01-30T07:18:30.691Z,96960.19
2023-01-30T07:21:17.760Z,96953.91
2023-01-30T07:24:06.934Z,96969.03
2023-01-30T07:26:53.768Z,96969.03
2023-01-30T07:29:40.949Z,96979.53
2023-01-30T07:32:34.625Z,96987.50
2023-01-30T07:35:21.868Z,96994.56
2023-01-30T07:38:09.899Z,96930.22
2023-01-30T07:40:56.921Z,96976.56
2023-01-30T07:43:44.333Z,96995.38
2023-01-30T07:46:31.309Z,97004.22
2023-01-30T07:49:18.195Z,96980.00
2023-01-30T07:52:05.298Z,97008.31
2023-01-30T07:54:52.275Z,97022.72
2023-01-30T07:57:39.405Z,97019.38
2023-01-30T08:00:27.324Z,97015.09
2023-01-30T08:03:14.403Z,97032.50
2023-01-30T08:06:01.423Z,97035.13
2023-01-30T08:08:49.273Z,97034.44
2023-01-30T08:11:36.136Z,97038.84
2023-01-30T08:14:23.195Z,97027.88
2023-01-30T08:16:52.348Z,97039.94
2023-01-30T08:19:19.477Z,97046.25
2023-01-30T08:21:46.473Z,97052.47
2023-01-30T08:24:13.553Z,97059.50
2023-01-30T08:26:40.715Z,97044.38
2023-01-30T08:29:07.696Z,97058.94
2023-01-30T08:31:34.772Z,97055.63
2023-01-30T08:34:02.220Z,97069.81
2023-01-30T08:36:29.628Z,97076.38
2023-01-30T08:38:56.608Z,97089.50
2023-01-30T08:41:23.608Z,97098.59
2023-01-30T08:43:50.665Z,97098.00
2023-01-30T08:46:17.589Z,97097.16
2023-01-30T08:48:49.955Z,97085.59
2023-01-30T08:51:17.815Z,97089.69
2023-01-30T08:53:44.798Z,97106.47
2023-01-30T08:56:11.752Z,97094.09
2023-01-30T08:58:38.744Z,97112.22
2023-01-30T09:01:07.388Z,97108.88
2023-01-30T09:03:34.809Z,97121.16
2023-01-30T09:06:01.872Z,97117.69
2023-01-30T09:08:28.952Z,97093.19
2023-01-30T09:11:00.081Z,97117.94
2023-01-30T09:13:28.082Z,97121.41
2023-01-30T09:15:55.081Z,97101.63
2023-01-30T09:18:22.135Z,97123.31
2023-01-30T09:20:49.101Z,97128.56
2023-01-30T09:23:18.220Z,97131.31
2023-01-30T09:25:46.862Z,97099.97
2023-01-30T09:28:14.961Z,97136.78
2023-01-30T09:30:42.085Z,97138.69
2023-01-30T09:33:09.118Z,97140.38
2023-01-30T09:35:36.181Z,97142.41
2023-01-30T09:38:04.396Z,97150.97
2023-01-30T09:40:52.772Z,97154.53
2023-01-30T09:43:48.649Z,97159.06
2023-01-30T09:46:48.182Z,97165.88
2023-01-30T09:49:47.166Z,97169.78
2023-01-30T09:53:11.906Z,97165.63
2023-01-30T09:56:00.589Z,97170.88
2023-01-30T09:59:17.349Z,97178.84
2023-01-30T10:02:42.468Z,97186.00
2023-01-30T10:05:29.649Z,97168.47
2023-01-30T10:08:24.493Z,97185.41
2023-01-30T10:11:36.482Z,97186.34
2023-01-30T10:14:26.218Z,97190.91
2023-01-30T10:17:22.347Z,97181.47
2023-01-30T10:20:36.958Z,97202.44
2023-01-30T10:23:51.604Z,97207.69
2023-01-30T10:26:41.592Z,97205.06
2023-01-30T10:29:35.865Z,97217.34
2023-01-30T10:32:34.413Z,97216.50
2023-01-30T10:35:39.187Z,97220.91
2023-01-30T10:38:57.632Z,97217.47
2023-01-30T10:41:50.693Z,97227.00
2023-01-30T10:44:37.710Z,97232.22
2023-01-30T10:47:46.648Z,97235.81
2023-01-30T10:50:47.167Z,97244.59
2023-01-30T10:53:41.503Z,97238.66
2023-01-30T10:56:39.898Z,97249.03
2023-01-30T10:59:54.854Z,97194.88
2023-01-30T11:02:46.399Z,97252.81
2023-01-30T11:05:36.688Z,97266.31
2023-01-30T11:08:23.843Z,97269.91
2023-01-30T11:11:11.937Z,97275.94
2023-01-30T11:13:58.793Z,97276.78
2023-01-30T11:16:45.834Z,97273.44
2023-01-30T11:19:33.743Z,97289.78
2023-01-30T11:22:23.081Z,97289.78
2023-01-30T11:25:24.522Z,97295.03
2023-01-30T11:28:23.948Z,97293.25
2023-01-30T11:31:18.423Z,97300.16
2023-01-30T11:34:20.107Z,97246.81
2023-01-30T11:37:07.860Z,97315.28
2023-01-30T11:39:55.464Z,97308.13
2023-01-30T11:42:49.771Z,97308.13
2023-01-30T11:45:39.115Z,97312.41
2023-01-30T11:49:18.143Z,97314.94
2023-01-30T11:51:44.648Z,97328.88
2023-01-30T11:55:02.767Z,97332.34
2023-01-30T11:57:49.672Z,97337.72
2023-01-30T12:00:45.075Z,97336.75
2023-01-30T12:03:16.828Z,97340.69
2023-01-30T12:05:46.293Z,97336.25
2023-01-30T12:08:39.397Z,97353.22
2023-01-30T12:11:25.581Z,97361.88
2023-01-30T12:13:55.516Z,97378.47
2023-01-30T12:16:23.971Z,97330.31
2023-01-30T12:19:19.631Z,97390.97
2023-01-30T12:22:19.001Z,97404.06
2023-01-30T12:25:29.407Z,97410.16
2023-01-30T12:28:23.213Z,97409.19
2023-01-30T12:31:17.905Z,97411.00
2023-01-30T12:34:04.940Z,97411.00
2023-01-30T12:37:05.137Z,97424.94
2023-01-30T12:40:17.570Z,97431.25
2023-01-30T12:43:41.739Z,97438.25
2023-01-30T12:46:53.295Z,97448.16
2023-01-30T12:49:52.647Z,97462.06
2023-01-30T12:52:41.748Z,97462.31
2023-01-30T12:55:23.826Z,97478.88
2023-01-30T12:58:20.021Z,97472.41
2023-01-30T13:01:48.430Z,97486.84
2023-01-30T13:04:46.943Z,97490.44
2023-01-30T13:08:03.190Z,97508.88
2023-01-30T13:11:31.598Z,97517.69
2023-01-30T13:14:39.458Z,97524.84
2023-01-30T13:18:03.831Z,97532.78
2023-01-30T13:21:17.654Z,97540.66
2023-01-30T13:24:13.935Z,97547.69
2023-01-30T13:27:03.021Z,97555.66
2023-01-30T13:29:57.698Z,97559.19
2023-01-30T13:33:23.135Z,97568.03
2023-01-30T13:36:23.578Z,97578.84
2023-01-30T13:39:34.974Z,97604.94
2023-01-30T13:42:28.503Z,97517.78
2023-01-30T13:45:16.687Z,97604.41
2023-01-30T13:48:18.398Z,97625.38
2023-01-30T13:51:32.890Z,97621.19
2023-01-30T13:54:41.182Z,97638.06
2023-01-30T13:57:55.565Z,97645.41
2023-01-30T14:00:52.337Z,97648.34
2023-01-30T14:03:30.601Z,97659.13
2023-01-30T14:05:59.238Z,97662.66
2023-01-30T14:08:52.338Z,97679.56
2023-01-30T14:11:33.980Z,97679.66
2023-01-30T14:14:19.865Z,97693.69
2023-01-30T14:17:07.231Z,97701.66
2023-01-30T14:20:02.562Z,97706.47
2023-01-30T14:22:38.110Z,97707.41
2023-01-30T14:25:23.259Z,97715.38
2023-01-30T14:27:54.547Z,97670.34
2023-01-30T14:30:49.700Z,97719.13
2023-01-30T14:33:19.867Z,97733.16
2023-01-30T14:36:26.634Z,97735.03
2023-01-30T14:39:37.570Z,97743.28
2023-01-30T14:42:41.396Z,97746.66
2023-01-30T14:45:35.319Z,97757.31
2023-01-30T14:48:46.377Z,97774.06
2023-01-30T14:52:00.557Z,97776.88
2023-01-30T14:54:53.204Z,97773.63
2023-01-30T14:57:45.494Z,97770.75
2023-01-30T15:00:38.929Z,97787.84
2023-01-30T15:03:38.403Z,97791.50
2023-01-30T15:06:25.906Z,97793.38
2023-01-30T15:09:13.011Z,97783.88
2023-01-30T15:12:06.750Z,97794.81
2023-01-30T15:15:13.159Z,97806.22
2023-01-30T15:18:09.094Z,97820.97
2023-01-30T15:21:05.225Z,97827.16
2023-01-30T15:24:04.787Z,97829.13
2023-01-30T15:27:15.838Z,97830.97
2023-01-30T15:30:24.755Z,97828.56
2023-01-30T15:33:36.172Z,97830.41
2023-01-30T15:36:38.711Z,97780.66
2023-01-30T15:39:47.317Z,97865.47
2023-01-30T15:42:36.228Z,97862.94
2023-01-30T15:45:45.337Z,97822.31
2023-01-30T15:49:05.762Z,97887.63
2023-01-30T15:51:53.021Z,97889.50
2023-01-30T15:54:45.333Z,97893.97
2023-01-30T15:57:42.737Z,97879.88
2023-01-30T16:00:44.581Z,97894.06
2023-01-30T16:03:15.662Z,97907.25
2023-01-30T16:05:51.007Z,97908.19
2023-01-30T16:08:36.951Z,97868.91
2023-01-30T16:11:03.950Z,97877.41
2023-01-30T16:13:33.237Z,97924.91
2023-01-30T16:16:20.676Z,97928.34
2023-01-30T16:19:12.144Z,97935.38
2023-01-30T16:22:00.081Z,97937.25
2023-01-30T16:24:52.945Z,97942.38
2023-01-30T16:27:53.969Z,97959.75
2023-01-30T16:30:44.516Z,97964.97
2023-01-30T16:33:37.066Z,97971.16
2023-01-30T16:36:47.243Z,97951.69
2023-01-30T16:39:53.666Z,97977.97
2023-01-30T16:42:46.703Z,97991.91
2023-01-30T16:45:33.594Z,97990.88
2023-01-30T16:48:38.609Z,97990.59
2023-01-30T16:51:44.317Z,98002.41
2023-01-30T16:54:43.467Z,97999.69
2023-01-30T16:57:49.734Z,98003.03
2023-01-30T17:00:48.689Z,98015.31
2023-01-30T17:03:41.678Z,98008.47
2023-01-30T17:06:48.123Z,98026.97
2023-01-30T17:09:51.132Z,98006.28
2023-01-30T17:12:35.201Z,98038.56
2023-01-30T17:15:12.023Z,98040.50
2023-01-30T17:18:01.923Z,98038.22
2023-01-30T17:20:56.938Z,98054.59
2023-01-30T17:23:44.043Z,98032.13
2023-01-30T17:26:34.005Z,98054.09
2023-01-30T17:29:41.275Z,98057.50
2023-01-30T17:32:32.013Z,98028.44
2023-01-30T17:35:19.266Z,98080.19
2023-01-30T17:38:06.427Z,98077.56
2023-01-30T17:40:56.765Z,98083.75
2023-01-30T17:43:43.904Z,98087.31
2023-01-30T17:46:32.751Z,98091.69
2023-01-30T17:49:19.701Z,98106.53
2023-01-30T17:52:07.281Z,98120.53
2023-01-30T17:54:54.222Z,98109.22
2023-01-30T17:57:41.145Z,98137.19
2023-01-30T18:00:30.590Z,98077.72
2023-01-30T18:03:17.896Z,98139.13
2023-01-30T18:06:05.244Z,98135.72
2023-01-30T18:08:52.315Z,98140.19
2023-01-30T18:11:39.229Z,98140.19
2023-01-30T18:14:26.163Z,98156.06
2023-01-30T18:17:13.764Z,98163.19
2023-01-30T18:20:00.998Z,98158.19
2023-01-30T18:22:47.898Z,98162.56
2023-01-30T18:25:35.723Z,98169.72
2023-01-30T18:28:22.634Z,98176.84
2023-01-30T18:31:09.676Z,98182.91
2023-01-30T18:33:56.590Z,98146.44
2023-01-30T18:36:44.157Z,98181.38
2023-01-30T18:39:32.125Z,98158.16
2023-01-30T18:42:19.241Z,98186.94
2023-01-30T18:45:06.243Z,98177.00
2023-01-30T18:47:53.299Z,98197.66
2023-01-30T18:50:40.560Z,98174.63
2023-01-30T18:53:27.386Z,98183.91
2023-01-30T18:56:14.309Z,98192.69
2023-01-30T18:59:01.573Z,98197.06
2023-01-30T19:01:50.858Z,98197.13
2023-01-30T19:04:37.887Z,98205.06
2023-01-30T19:07:25.169Z,98212.91
2023-01-30T19:09:52.341Z,98224.38
2023-01-30T19:12:37.705Z,98225.19
2023-01-30T19:15:25.843Z,98217.75
2023-01-30T19:18:12.931Z,98255.66
2023-01-30T19:21:00.046Z,98240.97
2023-01-30T19:23:50.826Z,98218.41
2023-01-30T19:26:38.817Z,98267.97
2023-01-30T19:29:26.374Z,98274.94
2023-01-30T19:32:13.186Z,98288.03
2023-01-30T19:35:00.046Z,98293.31
2023-01-30T19:37:46.960Z,98302.97
2023-01-30T19:40:33.930Z,98316.03
2023-01-30T19:43:21.016Z,98289.91
2023-01-30T19:46:17.264Z,98257.13
2023-01-30T19:49:05.955Z,98322.16
2023-01-30T19:51:54.813Z,98324.84
2023-01-30T19:54:41.778Z,98318.03
2023-01-30T19:57:28.657Z,98331.78
2023-01-30T20:00:15.623Z,98337.84
2023-01-30T20:03:02.538Z,98342.25
2023-01-30T20:05:49.682Z,98331.94
2023-01-30T20:08:37.395Z,98338.84
2023-01-30T20:11:26.558Z,98355.41
2023-01-30T20:14:13.750Z,98360.63
2023-01-30T20:17:00.644Z,98370.22
2023-01-30T20:19:47.457Z,98377.13
2023-01-30T20:22:34.413Z,98387.66
2023-01-30T20:25:21.236Z,98396.44
2023-01-30T20:28:08.338Z,98393.81
2023-01-30T20:30:55.272Z,98400.81
2023-01-30T20:33:42.325Z,98335.09
2023-01-30T20:36:31.434Z,98411.34
2023-01-30T20:39:23.408Z,98395.06
2023-01-30T20:42:10.443Z,98413.97
2023-01-30T20:44:57.268Z,98420.97
2023-01-30T20:47:44.212Z,98413.28
2023-01-30T20:50:31.342Z,98410.94
2023-01-30T20:53:18.169Z,98365.56
2023-01-30T20:56:05.310Z,98436.81
2023-01-30T20:58:53.059Z,98409.78
2023-01-30T21:01:42.845Z,98401.16
2023-01-30T21:04:32.630Z,98433.41
2023-01-30T21:07:20.245Z,98422.47
2023-01-30T21:10:07.143Z,98435.41
2023-01-30T21:12:54.087Z,98464.00
2023-01-30T21:15:41.212Z,98458.69
2023-01-30T21:18:28.116Z,98463.13
2023-01-30T21:21:15.092Z,98463.13
2023-01-30T21:24:02.231Z,98466.69
2023-01-30T21:26:51.365Z,98472.84
2023-01-30T21:29:41.096Z,98480.59
2023-01-30T21:32:28.070Z,98488.53
2023-01-30T21:35:14.973Z,98489.41
2023-01-30T21:38:00.468Z,98499.06
2023-01-30T21:40:46.043Z,98496.50
2023-01-30T21:43:15.866Z,98497.41
2023-01-30T21:46:02.976Z,98505.16
2023-01-30T21:48:49.918Z,98509.66
2023-01-30T21:51:36.813Z,98511.47
2023-01-30T21:54:25.204Z,98517.50
2023-01-30T21:57:12.230Z,98516.63
2023-01-30T21:59:59.290Z,98482.75
2023-01-30T22:02:46.334Z,98514.09
2023-01-30T22:05:33.181Z,98521.94
2023-01-30T22:08:20.046Z,98515.84
2023-01-30T22:11:06.896Z,98517.63
2023-01-30T22:13:55.561Z,98516.78
2023-01-30T22:16:47.998Z,98533.38
2023-01-30T22:19:34.982Z,98529.91
2023-01-30T22:22:22.651Z,98534.28
2023-01-30T22:25:09.719Z,98539.50
2023-01-30T22:27:56.705Z,98531.66
2023-01-30T22:30:43.958Z,98518.34
2023-01-30T22:33:30.994Z,98542.19
2023-01-30T22:36:18.279Z,98547.41
2023-01-30T22:39:07.303Z,98460.88
2023-01-30T22:41:55.931Z,98545.75
2023-01-30T22:44:42.955Z,98548.41
2023-01-30T22:47:30.130Z,98551.59
2023-01-30T22:50:17.017Z,98576.31
2023-01-30T22:52:44.040Z,98591.16
2023-01-30T22:55:11.059Z,98584.28
2023-01-30T22:57:38.086Z,98593.84
2023-01-30T23:00:05.734Z,98593.97
2023-01-30T23:02:32.606Z,98588.75
2023-01-30T23:04:59.934Z,98605.25
2023-01-30T23:07:26.903Z,98602.72
2023-01-30T23:09:53.910Z,98613.16
2023-01-30T23:12:39.488Z,98619.31
2023-01-30T23:15:07.117Z,98632.38
2023-01-30T23:17:52.480Z,98629.84
2023-01-30T23:20:19.659Z,98630.75
2023-01-30T23:22:50.991Z,98637.81
2023-01-30T23:25:18.412Z,98648.25
2023-01-30T23:27:45.447Z,98646.56
2023-01-30T23:30:12.840Z,98636.19
2023-01-30T23:32:39.943Z,98643.16
2023-01-30T23:35:07.158Z,98648.47
2023-01-30T23:37:52.693Z,98665.03
2023-01-30T23:40:20.608Z,98664.22
2023-01-30T23:42:47.566Z,98661.72
2023-01-30T23:45:14.700Z,98665.22
2023-01-30T23:47:41.695Z,98659.44
2023-01-30T23:50:09.245Z,98666.22
2023-01-30T23:52:36.394Z,98670.59
2023-01-30T23:55:04.062Z,98654.16
2023-01-30T23:57:31.320Z,98669.84
2023-01-30T23:59:58.277Z,98670.72
